sensor_id;sensor_type;location;lat;lon;timestamp;P1;durP1;ratioP1;P2;durP2;ratioP2
52031;SDS011;38044;45.148;39.604;2024-01-27T00:01:50;14.05;;;9.27;;
52031;SDS011;38044;45.148;39.604;2024-01-27T00:04:17;14.88;;;9.50;;
52031;SDS011;38044;45.148;39.604;2024-01-27T00:06:42;15.35;;;9.63;;
52031;SDS011;38044;45.148;39.604;2024-01-27T00:09:08;15.45;;;9.18;;
52031;SDS011;38044;45.148;39.604;2024-01-27T00:11:34;14.95;;;9.95;;
52031;SDS011;38044;45.148;39.604;2024-01-27T00:14:00;14.75;;;9.40;;
52031;SDS011;38044;45.148;39.604;2024-01-27T00:16:26;13.00;;;9.73;;
52031;SDS011;38044;45.148;39.604;2024-01-27T00:18:52;15.23;;;8.60;;
52031;SDS011;38044;45.148;39.604;2024-01-27T00:21:18;12.20;;;8.65;;
52031;SDS011;38044;45.148;39.604;2024-01-27T00:23:43;13.32;;;9.07;;
52031;SDS011;38044;45.148;39.604;2024-01-27T00:26:09;14.77;;;9.70;;
52031;SDS011;38044;45.148;39.604;2024-01-27T00:28:36;11.73;;;8.40;;
52031;SDS011;38044;45.148;39.604;2024-01-27T00:31:02;14.18;;;9.07;;
52031;SDS011;38044;45.148;39.604;2024-01-27T00:33:28;13.85;;;9.05;;
52031;SDS011;38044;45.148;39.604;2024-01-27T00:35:54;15.25;;;9.63;;
52031;SDS011;38044;45.148;39.604;2024-01-27T00:38:19;15.63;;;10.15;;
52031;SDS011;38044;45.148;39.604;2024-01-27T00:40:45;13.27;;;9.30;;
52031;SDS011;38044;45.148;39.604;2024-01-27T00:43:11;15.27;;;10.70;;
52031;SDS011;38044;45.148;39.604;2024-01-27T00:45:37;15.57;;;10.07;;
52031;SDS011;38044;45.148;39.604;2024-01-27T00:48:03;14.23;;;9.38;;
52031;SDS011;38044;45.148;39.604;2024-01-27T00:50:29;13.75;;;9.50;;
52031;SDS011;38044;45.148;39.604;2024-01-27T00:52:55;15.63;;;9.82;;
52031;SDS011;38044;45.148;39.604;2024-01-27T00:55:20;13.27;;;9.27;;
52031;SDS011;38044;45.148;39.604;2024-01-27T00:57:46;14.88;;;9.55;;
52031;SDS011;38044;45.148;39.604;2024-01-27T01:00:12;18.08;;;10.55;;
52031;SDS011;38044;45.148;39.604;2024-01-27T01:02:38;17.95;;;10.40;;
52031;SDS011;38044;45.148;39.604;2024-01-27T01:05:06;13.98;;;9.60;;
52031;SDS011;38044;45.148;39.604;2024-01-27T01:07:32;13.80;;;8.88;;
52031;SDS011;38044;45.148;39.604;2024-01-27T01:09:58;13.65;;;10.13;;
52031;SDS011;38044;45.148;39.604;2024-01-27T01:12:24;16.77;;;10.35;;
52031;SDS011;38044;45.148;39.604;2024-01-27T01:14:51;14.73;;;9.30;;
52031;SDS011;38044;45.148;39.604;2024-01-27T01:17:17;14.50;;;8.98;;
52031;SDS011;38044;45.148;39.604;2024-01-27T01:19:43;15.02;;;8.88;;
52031;SDS011;38044;45.148;39.604;2024-01-27T01:22:10;14.30;;;9.60;;
52031;SDS011;38044;45.148;39.604;2024-01-27T01:24:36;15.20;;;9.80;;
52031;SDS011;38044;45.148;39.604;2024-01-27T01:27:02;15.45;;;10.45;;
52031;SDS011;38044;45.148;39.604;2024-01-27T01:29:28;25.15;;;13.43;;
52031;SDS011;38044;45.148;39.604;2024-01-27T01:31:54;14.80;;;9.65;;
52031;SDS011;38044;45.148;39.604;2024-01-27T01:34:20;15.18;;;9.30;;
52031;SDS011;38044;45.148;39.604;2024-01-27T01:36:46;14.50;;;9.73;;
52031;SDS011;38044;45.148;39.604;2024-01-27T01:39:13;15.32;;;9.63;;
52031;SDS011;38044;45.148;39.604;2024-01-27T01:41:39;13.63;;;9.43;;
52031;SDS011;38044;45.148;39.604;2024-01-27T01:44:05;14.35;;;9.73;;
52031;SDS011;38044;45.148;39.604;2024-01-27T01:46:32;16.42;;;10.13;;
52031;SDS011;38044;45.148;39.604;2024-01-27T01:48:58;13.95;;;9.88;;
52031;SDS011;38044;45.148;39.604;2024-01-27T01:51:25;14.15;;;9.27;;
52031;SDS011;38044;45.148;39.604;2024-01-27T01:53:54;15.98;;;9.95;;
52031;SDS011;38044;45.148;39.604;2024-01-27T01:56:24;13.95;;;9.50;;
52031;SDS011;38044;45.148;39.604;2024-01-27T01:58:50;15.25;;;9.18;;
52031;SDS011;38044;45.148;39.604;2024-01-27T02:01:17;13.88;;;9.07;;
52031;SDS011;38044;45.148;39.604;2024-01-27T02:03:51;14.75;;;9.52;;
52031;SDS011;38044;45.148;39.604;2024-01-27T02:06:20;14.00;;;9.57;;
52031;SDS011;38044;45.148;39.604;2024-01-27T02:08:47;13.70;;;9.15;;
52031;SDS011;38044;45.148;39.604;2024-01-27T02:11:13;15.52;;;10.40;;
52031;SDS011;38044;45.148;39.604;2024-01-27T02:13:39;14.68;;;8.65;;
52031;SDS011;38044;45.148;39.604;2024-01-27T02:16:05;12.88;;;8.85;;
52031;SDS011;38044;45.148;39.604;2024-01-27T02:18:31;13.73;;;9.38;;
52031;SDS011;38044;45.148;39.604;2024-01-27T02:20:56;15.68;;;10.38;;
52031;SDS011;38044;45.148;39.604;2024-01-27T02:23:22;15.38;;;9.68;;
52031;SDS011;38044;45.148;39.604;2024-01-27T02:25:48;14.15;;;9.00;;
52031;SDS011;38044;45.148;39.604;2024-01-27T02:28:15;15.20;;;10.18;;
52031;SDS011;38044;45.148;39.604;2024-01-27T02:30:42;14.07;;;10.02;;
52031;SDS011;38044;45.148;39.604;2024-01-27T02:33:07;14.55;;;10.23;;
52031;SDS011;38044;45.148;39.604;2024-01-27T02:35:33;15.73;;;10.15;;
52031;SDS011;38044;45.148;39.604;2024-01-27T02:37:59;15.82;;;10.48;;
52031;SDS011;38044;45.148;39.604;2024-01-27T02:40:25;22.23;;;13.60;;
52031;SDS011;38044;45.148;39.604;2024-01-27T02:42:51;16.52;;;12.25;;
52031;SDS011;38044;45.148;39.604;2024-01-27T02:45:17;24.77;;;15.35;;
52031;SDS011;38044;45.148;39.604;2024-01-27T02:47:43;26.52;;;16.92;;
52031;SDS011;38044;45.148;39.604;2024-01-27T02:50:09;24.02;;;15.50;;
52031;SDS011;38044;45.148;39.604;2024-01-27T02:52:36;21.40;;;13.82;;
52031;SDS011;38044;45.148;39.604;2024-01-27T02:55:01;26.05;;;14.40;;
52031;SDS011;38044;45.148;39.604;2024-01-27T02:57:27;19.40;;;13.55;;
52031;SDS011;38044;45.148;39.604;2024-01-27T02:59:54;22.10;;;12.18;;
52031;SDS011;38044;45.148;39.604;2024-01-27T03:02:20;20.80;;;13.02;;
52031;SDS011;38044;45.148;39.604;2024-01-27T03:04:46;20.88;;;12.80;;
52031;SDS011;38044;45.148;39.604;2024-01-27T03:07:12;17.63;;;11.40;;
52031;SDS011;38044;45.148;39.604;2024-01-27T03:09:38;16.98;;;10.82;;
52031;SDS011;38044;45.148;39.604;2024-01-27T03:12:03;16.30;;;10.13;;
52031;SDS011;38044;45.148;39.604;2024-01-27T03:14:30;18.02;;;12.10;;
52031;SDS011;38044;45.148;39.604;2024-01-27T03:16:55;16.40;;;10.43;;
52031;SDS011;38044;45.148;39.604;2024-01-27T03:19:21;12.40;;;9.55;;
52031;SDS011;38044;45.148;39.604;2024-01-27T03:21:47;13.05;;;8.43;;
52031;SDS011;38044;45.148;39.604;2024-01-27T03:24:13;14.25;;;9.13;;
52031;SDS011;38044;45.148;39.604;2024-01-27T03:26:39;13.57;;;8.38;;
52031;SDS011;38044;45.148;39.604;2024-01-27T03:29:05;12.60;;;8.48;;
52031;SDS011;38044;45.148;39.604;2024-01-27T03:31:30;14.98;;;9.32;;
52031;SDS011;38044;45.148;39.604;2024-01-27T03:34:00;14.23;;;9.50;;
52031;SDS011;38044;45.148;39.604;2024-01-27T03:36:27;13.30;;;8.20;;
52031;SDS011;38044;45.148;39.604;2024-01-27T03:38:53;19.90;;;9.07;;
52031;SDS011;38044;45.148;39.604;2024-01-27T03:41:19;15.35;;;8.55;;
52031;SDS011;38044;45.148;39.604;2024-01-27T03:43:45;19.23;;;8.68;;
52031;SDS011;38044;45.148;39.604;2024-01-27T03:46:11;16.08;;;8.50;;
52031;SDS011;38044;45.148;39.604;2024-01-27T03:48:37;21.77;;;8.95;;
52031;SDS011;38044;45.148;39.604;2024-01-27T03:51:03;14.60;;;8.15;;
52031;SDS011;38044;45.148;39.604;2024-01-27T03:53:28;15.98;;;7.97;;
52031;SDS011;38044;45.148;39.604;2024-01-27T03:55:55;14.32;;;8.52;;
52031;SDS011;38044;45.148;39.604;2024-01-27T03:58:23;16.38;;;8.82;;
52031;SDS011;38044;45.148;39.604;2024-01-27T04:00:49;14.70;;;8.20;;
52031;SDS011;38044;45.148;39.604;2024-01-27T04:03:16;15.30;;;9.68;;
52031;SDS011;38044;45.148;39.604;2024-01-27T04:05:42;17.65;;;11.30;;
52031;SDS011;38044;45.148;39.604;2024-01-27T04:08:08;19.33;;;12.05;;
52031;SDS011;38044;45.148;39.604;2024-01-27T04:10:35;17.95;;;11.10;;
52031;SDS011;38044;45.148;39.604;2024-01-27T04:13:02;17.77;;;10.68;;
52031;SDS011;38044;45.148;39.604;2024-01-27T04:15:28;16.60;;;10.25;;
52031;SDS011;38044;45.148;39.604;2024-01-27T04:17:54;16.30;;;10.10;;
52031;SDS011;38044;45.148;39.604;2024-01-27T04:20:20;15.38;;;9.10;;
52031;SDS011;38044;45.148;39.604;2024-01-27T04:22:46;13.48;;;8.93;;
52031;SDS011;38044;45.148;39.604;2024-01-27T04:25:12;16.20;;;9.20;;
52031;SDS011;38044;45.148;39.604;2024-01-27T04:27:38;17.40;;;10.70;;
52031;SDS011;38044;45.148;39.604;2024-01-27T04:30:05;16.35;;;10.73;;
52031;SDS011;38044;45.148;39.604;2024-01-27T04:32:32;18.63;;;11.15;;
52031;SDS011;38044;45.148;39.604;2024-01-27T04:34:58;19.48;;;11.27;;
52031;SDS011;38044;45.148;39.604;2024-01-27T04:37:24;18.50;;;11.73;;
52031;SDS011;38044;45.148;39.604;2024-01-27T04:39:50;20.02;;;13.30;;
52031;SDS011;38044;45.148;39.604;2024-01-27T04:42:16;18.38;;;12.23;;
52031;SDS011;38044;45.148;39.604;2024-01-27T04:44:42;21.30;;;13.13;;
52031;SDS011;38044;45.148;39.604;2024-01-27T04:47:08;20.85;;;13.85;;
52031;SDS011;38044;45.148;39.604;2024-01-27T04:49:34;21.45;;;14.20;;
52031;SDS011;38044;45.148;39.604;2024-01-27T04:52:00;20.40;;;13.07;;
52031;SDS011;38044;45.148;39.604;2024-01-27T04:54:25;25.08;;;14.95;;
52031;SDS011;38044;45.148;39.604;2024-01-27T04:56:51;28.05;;;15.90;;
52031;SDS011;38044;45.148;39.604;2024-01-27T04:59:17;24.55;;;15.23;;
52031;SDS011;38044;45.148;39.604;2024-01-27T05:01:49;23.13;;;15.15;;
52031;SDS011;38044;45.148;39.604;2024-01-27T05:04:16;25.83;;;16.33;;
52031;SDS011;38044;45.148;39.604;2024-01-27T05:06:45;25.70;;;15.55;;
52031;SDS011;38044;45.148;39.604;2024-01-27T05:09:11;23.25;;;14.90;;
52031;SDS011;38044;45.148;39.604;2024-01-27T05:11:37;26.67;;;17.15;;
52031;SDS011;38044;45.148;39.604;2024-01-27T05:14:03;25.60;;;15.38;;
52031;SDS011;38044;45.148;39.604;2024-01-27T05:16:29;24.65;;;15.77;;
52031;SDS011;38044;45.148;39.604;2024-01-27T05:18:55;23.25;;;14.65;;
52031;SDS011;38044;45.148;39.604;2024-01-27T05:21:21;22.80;;;13.93;;
52031;SDS011;38044;45.148;39.604;2024-01-27T05:23:47;22.52;;;15.50;;
52031;SDS011;38044;45.148;39.604;2024-01-27T05:26:13;22.60;;;15.23;;
52031;SDS011;38044;45.148;39.604;2024-01-27T05:28:39;25.73;;;15.35;;
52031;SDS011;38044;45.148;39.604;2024-01-27T05:31:08;21.75;;;13.90;;
52031;SDS011;38044;45.148;39.604;2024-01-27T05:33:36;22.38;;;14.75;;
52031;SDS011;38044;45.148;39.604;2024-01-27T05:36:02;22.63;;;15.38;;
52031;SDS011;38044;45.148;39.604;2024-01-27T05:38:28;23.70;;;15.43;;
52031;SDS011;38044;45.148;39.604;2024-01-27T05:40:56;21.85;;;14.38;;
52031;SDS011;38044;45.148;39.604;2024-01-27T05:43:21;26.15;;;16.10;;
52031;SDS011;38044;45.148;39.604;2024-01-27T05:45:48;25.08;;;14.57;;
52031;SDS011;38044;45.148;39.604;2024-01-27T05:48:14;22.48;;;14.40;;
52031;SDS011;38044;45.148;39.604;2024-01-27T05:50:41;23.40;;;14.45;;
52031;SDS011;38044;45.148;39.604;2024-01-27T05:53:08;21.95;;;14.20;;
52031;SDS011;38044;45.148;39.604;2024-01-27T05:55:34;21.02;;;14.10;;
52031;SDS011;38044;45.148;39.604;2024-01-27T05:58:00;23.63;;;14.40;;
52031;SDS011;38044;45.148;39.604;2024-01-27T06:00:26;19.25;;;13.60;;
52031;SDS011;38044;45.148;39.604;2024-01-27T06:02:52;22.20;;;14.30;;
52031;SDS011;38044;45.148;39.604;2024-01-27T06:05:18;24.08;;;14.23;;
52031;SDS011;38044;45.148;39.604;2024-01-27T06:07:44;21.38;;;13.88;;
52031;SDS011;38044;45.148;39.604;2024-01-27T06:10:11;22.77;;;15.75;;
52031;SDS011;38044;45.148;39.604;2024-01-27T06:12:37;22.42;;;14.82;;
52031;SDS011;38044;45.148;39.604;2024-01-27T06:15:04;25.33;;;16.35;;
52031;SDS011;38044;45.148;39.604;2024-01-27T06:17:32;23.10;;;15.27;;
52031;SDS011;38044;45.148;39.604;2024-01-27T06:19:58;25.73;;;15.57;;
52031;SDS011;38044;45.148;39.604;2024-01-27T06:22:24;24.23;;;14.68;;
52031;SDS011;38044;45.148;39.604;2024-01-27T06:24:50;21.60;;;14.88;;
52031;SDS011;38044;45.148;39.604;2024-01-27T06:27:16;22.77;;;15.63;;
52031;SDS011;38044;45.148;39.604;2024-01-27T06:29:42;22.25;;;14.52;;
52031;SDS011;38044;45.148;39.604;2024-01-27T06:32:09;24.75;;;16.00;;
52031;SDS011;38044;45.148;39.604;2024-01-27T06:34:35;25.02;;;14.73;;
52031;SDS011;38044;45.148;39.604;2024-01-27T06:37:01;21.92;;;13.85;;
52031;SDS011;38044;45.148;39.604;2024-01-27T06:39:26;24.25;;;14.50;;
52031;SDS011;38044;45.148;39.604;2024-01-27T06:41:53;22.33;;;14.23;;
52031;SDS011;38044;45.148;39.604;2024-01-27T06:44:20;22.55;;;13.63;;
52031;SDS011;38044;45.148;39.604;2024-01-27T06:46:49;19.38;;;13.50;;
52031;SDS011;38044;45.148;39.604;2024-01-27T06:49:15;20.77;;;13.57;;
52031;SDS011;38044;45.148;39.604;2024-01-27T06:51:43;17.55;;;12.40;;
52031;SDS011;38044;45.148;39.604;2024-01-27T06:54:09;17.67;;;12.27;;
52031;SDS011;38044;45.148;39.604;2024-01-27T06:56:35;18.50;;;12.82;;
52031;SDS011;38044;45.148;39.604;2024-01-27T06:59:04;22.65;;;13.93;;
52031;SDS011;38044;45.148;39.604;2024-01-27T07:01:30;22.77;;;14.75;;
52031;SDS011;38044;45.148;39.604;2024-01-27T07:03:56;23.38;;;14.80;;
52031;SDS011;38044;45.148;39.604;2024-01-27T07:06:21;21.98;;;14.18;;
52031;SDS011;38044;45.148;39.604;2024-01-27T07:08:47;20.38;;;14.45;;
52031;SDS011;38044;45.148;39.604;2024-01-27T07:11:13;20.55;;;14.15;;
52031;SDS011;38044;45.148;39.604;2024-01-27T07:13:41;22.55;;;13.00;;
52031;SDS011;38044;45.148;39.604;2024-01-27T07:16:07;20.17;;;13.02;;
52031;SDS011;38044;45.148;39.604;2024-01-27T07:18:33;20.40;;;13.18;;
52031;SDS011;38044;45.148;39.604;2024-01-27T07:21:00;21.00;;;12.63;;
52031;SDS011;38044;45.148;39.604;2024-01-27T07:23:27;21.10;;;13.10;;
52031;SDS011;38044;45.148;39.604;2024-01-27T07:25:59;17.70;;;11.75;;
52031;SDS011;38044;45.148;39.604;2024-01-27T07:28:28;17.25;;;12.27;;
52031;SDS011;38044;45.148;39.604;2024-01-27T07:30:55;16.67;;;10.95;;
52031;SDS011;38044;45.148;39.604;2024-01-27T07:33:21;20.45;;;11.85;;
52031;SDS011;38044;45.148;39.604;2024-01-27T07:35:47;20.33;;;11.57;;
52031;SDS011;38044;45.148;39.604;2024-01-27T07:38:13;14.63;;;10.00;;
52031;SDS011;38044;45.148;39.604;2024-01-27T07:40:38;18.27;;;10.65;;
52031;SDS011;38044;45.148;39.604;2024-01-27T07:43:04;16.80;;;10.90;;
52031;SDS011;38044;45.148;39.604;2024-01-27T07:45:30;17.25;;;11.40;;
52031;SDS011;38044;45.148;39.604;2024-01-27T07:47:56;18.55;;;11.00;;
52031;SDS011;38044;45.148;39.604;2024-01-27T07:50:22;17.55;;;10.85;;
52031;SDS011;38044;45.148;39.604;2024-01-27T07:52:48;12.77;;;9.68;;
52031;SDS011;38044;45.148;39.604;2024-01-27T07:55:14;17.05;;;11.10;;
52031;SDS011;38044;45.148;39.604;2024-01-27T07:57:40;16.42;;;10.82;;
52031;SDS011;38044;45.148;39.604;2024-01-27T08:00:06;14.75;;;10.52;;
52031;SDS011;38044;45.148;39.604;2024-01-27T08:02:33;18.40;;;11.27;;
52031;SDS011;38044;45.148;39.604;2024-01-27T08:04:59;18.45;;;11.38;;
52031;SDS011;38044;45.148;39.604;2024-01-27T08:07:25;14.77;;;10.52;;
52031;SDS011;38044;45.148;39.604;2024-01-27T08:09:50;15.48;;;10.40;;
52031;SDS011;38044;45.148;39.604;2024-01-27T08:12:16;15.60;;;10.90;;
52031;SDS011;38044;45.148;39.604;2024-01-27T08:14:42;15.85;;;10.75;;
52031;SDS011;38044;45.148;39.604;2024-01-27T08:17:08;14.32;;;10.73;;
52031;SDS011;38044;45.148;39.604;2024-01-27T08:19:34;16.75;;;11.75;;
52031;SDS011;38044;45.148;39.604;2024-01-27T08:22:00;15.60;;;10.65;;
52031;SDS011;38044;45.148;39.604;2024-01-27T08:24:26;14.65;;;10.02;;
52031;SDS011;38044;45.148;39.604;2024-01-27T08:26:52;13.32;;;10.23;;
52031;SDS011;38044;45.148;39.604;2024-01-27T08:29:18;14.48;;;10.13;;
52031;SDS011;38044;45.148;39.604;2024-01-27T08:31:44;14.05;;;10.13;;
52031;SDS011;38044;45.148;39.604;2024-01-27T08:34:10;16.05;;;10.73;;
52031;SDS011;38044;45.148;39.604;2024-01-27T08:36:37;14.15;;;11.00;;
52031;SDS011;38044;45.148;39.604;2024-01-27T08:39:03;15.23;;;11.38;;
52031;SDS011;38044;45.148;39.604;2024-01-27T08:41:32;13.65;;;10.13;;
52031;SDS011;38044;45.148;39.604;2024-01-27T08:43:58;15.82;;;11.00;;
52031;SDS011;38044;45.148;39.604;2024-01-27T08:46:24;18.77;;;11.30;;
52031;SDS011;38044;45.148;39.604;2024-01-27T08:48:50;17.90;;;10.80;;
52031;SDS011;38044;45.148;39.604;2024-01-27T08:51:16;18.40;;;10.80;;
52031;SDS011;38044;45.148;39.604;2024-01-27T08:53:43;15.25;;;10.15;;
52031;SDS011;38044;45.148;39.604;2024-01-27T08:56:14;14.95;;;9.98;;
52031;SDS011;38044;45.148;39.604;2024-01-27T08:58:41;18.92;;;10.88;;
52031;SDS011;38044;45.148;39.604;2024-01-27T09:01:09;17.35;;;10.95;;
52031;SDS011;38044;45.148;39.604;2024-01-27T09:03:38;16.08;;;10.80;;
52031;SDS011;38044;45.148;39.604;2024-01-27T09:06:05;15.63;;;9.85;;
52031;SDS011;38044;45.148;39.604;2024-01-27T09:08:33;13.02;;;9.77;;
52031;SDS011;38044;45.148;39.604;2024-01-27T09:11:00;15.18;;;9.68;;
52031;SDS011;38044;45.148;39.604;2024-01-27T09:13:26;14.40;;;9.60;;
52031;SDS011;38044;45.148;39.604;2024-01-27T09:15:52;16.10;;;10.18;;
52031;SDS011;38044;45.148;39.604;2024-01-27T09:18:18;16.60;;;9.93;;
52031;SDS011;38044;45.148;39.604;2024-01-27T09:20:44;16.73;;;11.20;;
52031;SDS011;38044;45.148;39.604;2024-01-27T09:23:10;23.63;;;14.48;;
52031;SDS011;38044;45.148;39.604;2024-01-27T09:25:36;24.50;;;15.30;;
52031;SDS011;38044;45.148;39.604;2024-01-27T09:28:02;23.73;;;14.45;;
52031;SDS011;38044;45.148;39.604;2024-01-27T09:30:28;21.27;;;16.00;;
52031;SDS011;38044;45.148;39.604;2024-01-27T09:32:54;22.40;;;14.82;;
52031;SDS011;38044;45.148;39.604;2024-01-27T09:35:20;30.33;;;16.52;;
52031;SDS011;38044;45.148;39.604;2024-01-27T09:37:46;25.20;;;15.63;;
52031;SDS011;38044;45.148;39.604;2024-01-27T09:40:12;24.90;;;14.13;;
52031;SDS011;38044;45.148;39.604;2024-01-27T09:42:38;23.60;;;14.10;;
52031;SDS011;38044;45.148;39.604;2024-01-27T09:45:08;23.30;;;13.77;;
52031;SDS011;38044;45.148;39.604;2024-01-27T09:47:35;19.20;;;12.80;;
52031;SDS011;38044;45.148;39.604;2024-01-27T09:50:02;24.00;;;13.35;;
52031;SDS011;38044;45.148;39.604;2024-01-27T09:52:28;23.40;;;14.70;;
52031;SDS011;38044;45.148;39.604;2024-01-27T09:54:54;20.25;;;12.73;;
52031;SDS011;38044;45.148;39.604;2024-01-27T09:57:20;18.73;;;12.82;;
52031;SDS011;38044;45.148;39.604;2024-01-27T09:59:46;22.92;;;15.65;;
52031;SDS011;38044;45.148;39.604;2024-01-27T10:02:14;23.13;;;14.93;;
52031;SDS011;38044;45.148;39.604;2024-01-27T10:04:42;22.15;;;13.85;;
52031;SDS011;38044;45.148;39.604;2024-01-27T10:07:10;20.88;;;13.77;;
52031;SDS011;38044;45.148;39.604;2024-01-27T10:09:36;20.48;;;13.43;;
52031;SDS011;38044;45.148;39.604;2024-01-27T10:12:02;21.58;;;13.07;;
52031;SDS011;38044;45.148;39.604;2024-01-27T10:14:41;19.13;;;12.43;;
52031;SDS011;38044;45.148;39.604;2024-01-27T10:17:13;17.83;;;11.63;;
52031;SDS011;38044;45.148;39.604;2024-01-27T10:20:03;18.33;;;12.68;;
52031;SDS011;38044;45.148;39.604;2024-01-27T10:22:37;23.08;;;12.43;;
52031;SDS011;38044;45.148;39.604;2024-01-27T10:25:04;18.45;;;12.45;;
52031;SDS011;38044;45.148;39.604;2024-01-27T10:27:31;21.27;;;12.10;;
52031;SDS011;38044;45.148;39.604;2024-01-27T10:29:57;19.70;;;12.55;;
52031;SDS011;38044;45.148;39.604;2024-01-27T10:32:23;18.92;;;12.50;;
52031;SDS011;38044;45.148;39.604;2024-01-27T10:37:33;18.95;;;12.20;;
52031;SDS011;38044;45.148;39.604;2024-01-27T10:40:03;17.95;;;12.00;;
52031;SDS011;38044;45.148;39.604;2024-01-27T10:42:36;25.02;;;14.30;;
52031;SDS011;38044;45.148;39.604;2024-01-27T10:45:04;27.10;;;17.45;;
52031;SDS011;38044;45.148;39.604;2024-01-27T10:47:32;18.75;;;12.57;;
52031;SDS011;38044;45.148;39.604;2024-01-27T10:49:58;16.70;;;12.65;;
52031;SDS011;38044;45.148;39.604;2024-01-27T10:52:32;17.77;;;12.43;;
52031;SDS011;38044;45.148;39.604;2024-01-27T10:54:59;18.67;;;13.13;;
52031;SDS011;38044;45.148;39.604;2024-01-27T10:57:32;17.48;;;13.25;;
52031;SDS011;38044;45.148;39.604;2024-01-27T11:00:02;20.50;;;13.75;;
52031;SDS011;38044;45.148;39.604;2024-01-27T11:02:37;22.33;;;13.40;;
52031;SDS011;38044;45.148;39.604;2024-01-27T11:05:04;28.15;;;16.40;;
52031;SDS011;38044;45.148;39.604;2024-01-27T11:07:36;29.00;;;17.70;;
52031;SDS011;38044;45.148;39.604;2024-01-27T11:10:06;24.50;;;13.85;;
52031;SDS011;38044;45.148;39.604;2024-01-27T11:12:37;21.42;;;13.57;;
52031;SDS011;38044;45.148;39.604;2024-01-27T11:15:07;21.58;;;13.77;;
52031;SDS011;38044;45.148;39.604;2024-01-27T11:17:39;22.10;;;14.20;;
52031;SDS011;38044;45.148;39.604;2024-01-27T11:20:10;17.80;;;12.43;;
52031;SDS011;38044;45.148;39.604;2024-01-27T11:22:38;24.63;;;14.93;;
52031;SDS011;38044;45.148;39.604;2024-01-27T11:25:06;20.88;;;13.05;;
52031;SDS011;38044;45.148;39.604;2024-01-27T11:27:34;22.83;;;14.32;;
52031;SDS011;38044;45.148;39.604;2024-01-27T11:30:00;19.42;;;12.77;;
52031;SDS011;38044;45.148;39.604;2024-01-27T11:32:27;19.48;;;12.82;;
52031;SDS011;38044;45.148;39.604;2024-01-27T11:34:53;17.27;;;11.90;;
52031;SDS011;38044;45.148;39.604;2024-01-27T11:37:18;19.40;;;12.15;;
52031;SDS011;38044;45.148;39.604;2024-01-27T11:39:51;19.77;;;12.23;;
52031;SDS011;38044;45.148;39.604;2024-01-27T11:42:29;20.80;;;11.80;;
52031;SDS011;38044;45.148;39.604;2024-01-27T11:44:55;19.55;;;12.95;;
52031;SDS011;38044;45.148;39.604;2024-01-27T11:47:20;21.15;;;12.80;;
52031;SDS011;38044;45.148;39.604;2024-01-27T11:49:51;18.00;;;12.57;;
52031;SDS011;38044;45.148;39.604;2024-01-27T11:52:22;21.38;;;14.52;;
52031;SDS011;38044;45.148;39.604;2024-01-27T11:54:55;19.30;;;13.10;;
52031;SDS011;38044;45.148;39.604;2024-01-27T11:59:48;19.58;;;13.40;;
52031;SDS011;38044;45.148;39.604;2024-01-27T12:02:15;19.27;;;12.95;;
52031;SDS011;38044;45.148;39.604;2024-01-27T12:04:41;17.50;;;11.98;;
52031;SDS011;38044;45.148;39.604;2024-01-27T12:07:07;15.75;;;11.38;;
52031;SDS011;38044;45.148;39.604;2024-01-27T12:09:35;21.23;;;11.77;;
52031;SDS011;38044;45.148;39.604;2024-01-27T12:12:03;21.90;;;13.82;;
52031;SDS011;38044;45.148;39.604;2024-01-27T12:17:09;24.17;;;14.70;;
52031;SDS011;38044;45.148;39.604;2024-01-27T12:19:35;25.13;;;14.52;;
52031;SDS011;38044;45.148;39.604;2024-01-27T12:22:02;20.27;;;12.88;;
52031;SDS011;38044;45.148;39.604;2024-01-27T12:24:28;20.60;;;13.15;;
52031;SDS011;38044;45.148;39.604;2024-01-27T12:26:55;17.65;;;12.00;;
52031;SDS011;38044;45.148;39.604;2024-01-27T12:29:22;21.05;;;13.10;;
52031;SDS011;38044;45.148;39.604;2024-01-27T12:31:48;18.20;;;11.25;;
52031;SDS011;38044;45.148;39.604;2024-01-27T12:34:15;19.67;;;12.30;;
52031;SDS011;38044;45.148;39.604;2024-01-27T12:36:41;21.98;;;13.15;;
52031;SDS011;38044;45.148;39.604;2024-01-27T12:39:07;21.60;;;13.45;;
52031;SDS011;38044;45.148;39.604;2024-01-27T12:41:34;19.30;;;12.43;;
52031;SDS011;38044;45.148;39.604;2024-01-27T12:44:00;18.05;;;11.13;;
52031;SDS011;38044;45.148;39.604;2024-01-27T12:46:27;16.88;;;11.00;;
52031;SDS011;38044;45.148;39.604;2024-01-27T12:48:54;17.05;;;10.75;;
52031;SDS011;38044;45.148;39.604;2024-01-27T12:51:20;18.00;;;11.23;;
52031;SDS011;38044;45.148;39.604;2024-01-27T12:53:46;18.73;;;11.38;;
52031;SDS011;38044;45.148;39.604;2024-01-27T12:56:14;14.98;;;9.80;;
52031;SDS011;38044;45.148;39.604;2024-01-27T12:58:41;16.20;;;10.32;;
52031;SDS011;38044;45.148;39.604;2024-01-27T13:01:07;15.90;;;10.32;;
52031;SDS011;38044;45.148;39.604;2024-01-27T13:03:34;13.85;;;10.15;;
52031;SDS011;38044;45.148;39.604;2024-01-27T13:06:00;15.32;;;9.95;;
52031;SDS011;38044;45.148;39.604;2024-01-27T13:08:27;13.85;;;9.68;;
52031;SDS011;38044;45.148;39.604;2024-01-27T13:10:53;14.52;;;9.73;;
52031;SDS011;38044;45.148;39.604;2024-01-27T13:13:20;15.65;;;10.32;;
52031;SDS011;38044;45.148;39.604;2024-01-27T13:15:45;15.30;;;10.60;;
52031;SDS011;38044;45.148;39.604;2024-01-27T13:18:11;17.85;;;11.02;;
52031;SDS011;38044;45.148;39.604;2024-01-27T13:20:37;17.73;;;11.55;;
52031;SDS011;38044;45.148;39.604;2024-01-27T13:23:05;14.10;;;9.95;;
52031;SDS011;38044;45.148;39.604;2024-01-27T13:25:31;14.00;;;9.48;;
52031;SDS011;38044;45.148;39.604;2024-01-27T13:27:57;16.13;;;9.48;;
52031;SDS011;38044;45.148;39.604;2024-01-27T13:30:23;14.40;;;9.55;;
52031;SDS011;38044;45.148;39.604;2024-01-27T13:32:49;12.70;;;9.15;;
52031;SDS011;38044;45.148;39.604;2024-01-27T13:35:15;16.95;;;11.38;;
52031;SDS011;38044;45.148;39.604;2024-01-27T13:37:41;19.52;;;13.10;;
52031;SDS011;38044;45.148;39.604;2024-01-27T13:40:07;19.27;;;11.60;;
52031;SDS011;38044;45.148;39.604;2024-01-27T13:42:35;20.00;;;12.63;;
52031;SDS011;38044;45.148;39.604;2024-01-27T13:45:02;17.63;;;11.70;;
52031;SDS011;38044;45.148;39.604;2024-01-27T13:47:28;19.13;;;11.68;;
52031;SDS011;38044;45.148;39.604;2024-01-27T13:49:55;19.80;;;12.48;;
52031;SDS011;38044;45.148;39.604;2024-01-27T13:52:21;17.42;;;11.13;;
52031;SDS011;38044;45.148;39.604;2024-01-27T13:54:47;20.67;;;12.18;;
52031;SDS011;38044;45.148;39.604;2024-01-27T13:57:14;15.85;;;10.52;;
52031;SDS011;38044;45.148;39.604;2024-01-27T13:59:41;14.23;;;9.95;;
52031;SDS011;38044;45.148;39.604;2024-01-27T14:02:07;15.55;;;9.80;;
52031;SDS011;38044;45.148;39.604;2024-01-27T14:04:33;18.73;;;10.60;;
52031;SDS011;38044;45.148;39.604;2024-01-27T14:07:00;15.45;;;10.32;;
52031;SDS011;38044;45.148;39.604;2024-01-27T14:09:32;18.30;;;11.48;;
52031;SDS011;38044;45.148;39.604;2024-01-27T14:11:58;19.75;;;12.43;;
52031;SDS011;38044;45.148;39.604;2024-01-27T14:14:24;22.95;;;15.95;;
52031;SDS011;38044;45.148;39.604;2024-01-27T14:16:50;20.25;;;14.20;;